sensor_id;sensor_type;location;lat;lon;timestamp;P1;durP1;ratioP1;P2;durP2;ratioP2
5077;SDS011;2557;51.390;7.494;2023-05-14T00:01:01;12.00;;;10.90;;
5077;SDS011;2557;51.390;7.494;2023-05-14T00:03:27;11.80;;;10.60;;
5077;SDS011;2557;51.390;7.494;2023-05-14T00:05:53;17.23;;;12.67;;
5077;SDS011;2557;51.390;7.494;2023-05-14T00:08:19;11.57;;;10.47;;
5077;SDS011;2557;51.390;7.494;2023-05-14T00:10:45;14.20;;;11.40;;
5077;SDS011;2557;51.390;7.494;2023-05-14T00:13:11;13.23;;;11.93;;
5077;SDS011;2557;51.390;7.494;2023-05-14T00:15:37;11.80;;;10.70;;
5077;SDS011;2557;51.390;7.494;2023-05-14T00:18:03;13.03;;;11.10;;
5077;SDS011;2557;51.390;7.494;2023-05-14T00:20:30;11.93;;;10.70;;
5077;SDS011;2557;51.390;7.494;2023-05-14T00:22:56;12.23;;;10.93;;
5077;SDS011;2557;51.390;7.494;2023-05-14T00:25:22;10.73;;;9.87;;
5077;SDS011;2557;51.390;7.494;2023-05-14T00:27:48;11.50;;;10.33;;
5077;SDS011;2557;51.390;7.494;2023-05-14T00:30:14;11.43;;;10.53;;
5077;SDS011;2557;51.390;7.494;2023-05-14T00:32:40;11.70;;;10.60;;
5077;SDS011;2557;51.390;7.494;2023-05-14T00:35:07;11.70;;;10.50;;
5077;SDS011;2557;51.390;7.494;2023-05-14T00:37:33;11.73;;;10.70;;
5077;SDS011;2557;51.390;7.494;2023-05-14T00:40:00;11.40;;;10.50;;
5077;SDS011;2557;51.390;7.494;2023-05-14T00:42:27;11.33;;;10.33;;
5077;SDS011;2557;51.390;7.494;2023-05-14T00:44:53;11.80;;;10.30;;
5077;SDS011;2557;51.390;7.494;2023-05-14T00:47:19;12.23;;;11.03;;
5077;SDS011;2557;51.390;7.494;2023-05-14T00:49:45;11.00;;;9.90;;
5077;SDS011;2557;51.390;7.494;2023-05-14T00:52:11;11.80;;;10.60;;
5077;SDS011;2557;51.390;7.494;2023-05-14T00:54:37;11.30;;;10.20;;
5077;SDS011;2557;51.390;7.494;2023-05-14T00:57:03;12.07;;;10.80;;
5077;SDS011;2557;51.390;7.494;2023-05-14T00:59:31;11.37;;;10.07;;
5077;SDS011;2557;51.390;7.494;2023-05-14T01:01:57;11.83;;;10.63;;
5077;SDS011;2557;51.390;7.494;2023-05-14T01:04:23;12.90;;;10.93;;
5077;SDS011;2557;51.390;7.494;2023-05-14T01:09:17;11.67;;;10.60;;
5077;SDS011;2557;51.390;7.494;2023-05-14T01:14:53;11.20;;;10.10;;
5077;SDS011;2557;51.390;7.494;2023-05-14T01:17:20;12.33;;;11.10;;
5077;SDS011;2557;51.390;7.494;2023-05-14T01:19:47;12.17;;;10.97;;
5077;SDS011;2557;51.390;7.494;2023-05-14T01:22:13;11.60;;;10.40;;
5077;SDS011;2557;51.390;7.494;2023-05-14T01:24:40;11.27;;;10.27;;
5077;SDS011;2557;51.390;7.494;2023-05-14T01:27:09;11.93;;;10.73;;
5077;SDS011;2557;51.390;7.494;2023-05-14T01:29:39;11.63;;;10.63;;
5077;SDS011;2557;51.390;7.494;2023-05-14T01:32:07;12.90;;;11.47;;
5077;SDS011;2557;51.390;7.494;2023-05-14T01:34:34;14.00;;;10.83;;
5077;SDS011;2557;51.390;7.494;2023-05-14T01:37:00;15.20;;;11.60;;
5077;SDS011;2557;51.390;7.494;2023-05-14T01:39:27;11.20;;;10.20;;
5077;SDS011;2557;51.390;7.494;2023-05-14T01:41:55;12.17;;;11.10;;
5077;SDS011;2557;51.390;7.494;2023-05-14T01:44:22;11.93;;;10.73;;
5077;SDS011;2557;51.390;7.494;2023-05-14T01:46:48;13.60;;;12.30;;
5077;SDS011;2557;51.390;7.494;2023-05-14T01:49:14;12.87;;;11.63;;
5077;SDS011;2557;51.390;7.494;2023-05-14T01:51:42;13.33;;;11.60;;
5077;SDS011;2557;51.390;7.494;2023-05-14T01:54:08;12.83;;;11.40;;
5077;SDS011;2557;51.390;7.494;2023-05-14T01:56:34;12.67;;;11.00;;
5077;SDS011;2557;51.390;7.494;2023-05-14T01:59:00;12.80;;;11.23;;
5077;SDS011;2557;51.390;7.494;2023-05-14T02:01:26;12.87;;;11.57;;
5077;SDS011;2557;51.390;7.494;2023-05-14T02:03:51;22.17;;;11.03;;
5077;SDS011;2557;51.390;7.494;2023-05-14T02:06:17;12.80;;;10.43;;
5077;SDS011;2557;51.390;7.494;2023-05-14T02:08:43;12.73;;;11.43;;
5077;SDS011;2557;51.390;7.494;2023-05-14T02:11:09;13.07;;;10.67;;
5077;SDS011;2557;51.390;7.494;2023-05-14T02:13:35;13.13;;;11.83;;
5077;SDS011;2557;51.390;7.494;2023-05-14T02:16:01;13.17;;;11.77;;
5077;SDS011;2557;51.390;7.494;2023-05-14T02:18:28;13.97;;;12.47;;
5077;SDS011;2557;51.390;7.494;2023-05-14T02:20:54;16.43;;;11.80;;
5077;SDS011;2557;51.390;7.494;2023-05-14T02:23:21;13.43;;;12.00;;
5077;SDS011;2557;51.390;7.494;2023-05-14T02:25:47;15.60;;;13.13;;
5077;SDS011;2557;51.390;7.494;2023-05-14T02:28:13;13.00;;;11.70;;
5077;SDS011;2557;51.390;7.494;2023-05-14T02:30:39;12.53;;;10.83;;
5077;SDS011;2557;51.390;7.494;2023-05-14T02:33:05;18.20;;;12.20;;
5077;SDS011;2557;51.390;7.494;2023-05-14T02:35:31;12.17;;;11.07;;
5077;SDS011;2557;51.390;7.494;2023-05-14T02:37:57;23.53;;;12.13;;
5077;SDS011;2557;51.390;7.494;2023-05-14T02:40:23;14.40;;;11.40;;
5077;SDS011;2557;51.390;7.494;2023-05-14T02:42:49;11.53;;;10.30;;
5077;SDS011;2557;51.390;7.494;2023-05-14T02:45:15;15.50;;;13.00;;
5077;SDS011;2557;51.390;7.494;2023-05-14T02:47:41;16.87;;;11.30;;
5077;SDS011;2557;51.390;7.494;2023-05-14T02:50:08;14.23;;;12.10;;
5077;SDS011;2557;51.390;7.494;2023-05-14T02:52:35;12.73;;;11.43;;
5077;SDS011;2557;51.390;7.494;2023-05-14T02:55:01;14.20;;;12.30;;
5077;SDS011;2557;51.390;7.494;2023-05-14T02:57:27;15.50;;;11.63;;
5077;SDS011;2557;51.390;7.494;2023-05-14T02:59:53;12.87;;;11.63;;
5077;SDS011;2557;51.390;7.494;2023-05-14T03:02:19;13.93;;;12.53;;
5077;SDS011;2557;51.390;7.494;2023-05-14T03:04:45;12.17;;;11.03;;
5077;SDS011;2557;51.390;7.494;2023-05-14T03:07:11;13.30;;;11.90;;
5077;SDS011;2557;51.390;7.494;2023-05-14T03:09:37;13.70;;;11.57;;
5077;SDS011;2557;51.390;7.494;2023-05-14T03:12:03;15.20;;;12.20;;
5077;SDS011;2557;51.390;7.494;2023-05-14T03:14:29;12.47;;;11.27;;
5077;SDS011;2557;51.390;7.494;2023-05-14T03:16:55;14.20;;;12.73;;
5077;SDS011;2557;51.390;7.494;2023-05-14T03:19:21;14.03;;;12.70;;
5077;SDS011;2557;51.390;7.494;2023-05-14T03:21:47;14.50;;;13.10;;
5077;SDS011;2557;51.390;7.494;2023-05-14T03:24:14;15.23;;;12.17;;
5077;SDS011;2557;51.390;7.494;2023-05-14T03:26:40;14.70;;;13.07;;
5077;SDS011;2557;51.390;7.494;2023-05-14T03:29:06;14.43;;;12.93;;
5077;SDS011;2557;51.390;7.494;2023-05-14T03:31:32;14.67;;;12.43;;
5077;SDS011;2557;51.390;7.494;2023-05-14T03:33:58;14.60;;;13.23;;
5077;SDS011;2557;51.390;7.494;2023-05-14T03:36:24;12.37;;;10.97;;
5077;SDS011;2557;51.390;7.494;2023-05-14T03:38:50;14.13;;;11.97;;
5077;SDS011;2557;51.390;7.494;2023-05-14T03:41:16;13.80;;;12.43;;
5077;SDS011;2557;51.390;7.494;2023-05-14T03:43:43;15.47;;;11.73;;
5077;SDS011;2557;51.390;7.494;2023-05-14T03:46:09;12.90;;;11.63;;
5077;SDS011;2557;51.390;7.494;2023-05-14T03:48:35;16.33;;;11.57;;
5077;SDS011;2557;51.390;7.494;2023-05-14T03:51:01;14.80;;;11.10;;
5077;SDS011;2557;51.390;7.494;2023-05-14T03:53:27;16.17;;;11.67;;
5077;SDS011;2557;51.390;7.494;2023-05-14T03:55:53;14.80;;;13.40;;
5077;SDS011;2557;51.390;7.494;2023-05-14T03:58:20;19.10;;;12.47;;
5077;SDS011;2557;51.390;7.494;2023-05-14T04:00:46;14.30;;;12.57;;
5077;SDS011;2557;51.390;7.494;2023-05-14T04:03:12;13.93;;;12.40;;
5077;SDS011;2557;51.390;7.494;2023-05-14T04:05:38;13.60;;;12.20;;
5077;SDS011;2557;51.390;7.494;2023-05-14T04:08:04;13.37;;;11.97;;
5077;SDS011;2557;51.390;7.494;2023-05-14T04:10:30;12.93;;;11.63;;
5077;SDS011;2557;51.390;7.494;2023-05-14T04:12:56;13.70;;;12.47;;
5077;SDS011;2557;51.390;7.494;2023-05-14T04:15:22;22.03;;;11.80;;
5077;SDS011;2557;51.390;7.494;2023-05-14T04:17:48;14.50;;;11.97;;
5077;SDS011;2557;51.390;7.494;2023-05-14T04:20:14;15.43;;;12.50;;
5077;SDS011;2557;51.390;7.494;2023-05-14T04:22:40;14.80;;;12.30;;
5077;SDS011;2557;51.390;7.494;2023-05-14T04:25:06;16.13;;;12.00;;
5077;SDS011;2557;51.390;7.494;2023-05-14T04:27:32;14.17;;;12.70;;
5077;SDS011;2557;51.390;7.494;2023-05-14T04:29:58;20.30;;;12.67;;
5077;SDS011;2557;51.390;7.494;2023-05-14T04:32:25;14.73;;;12.67;;
5077;SDS011;2557;51.390;7.494;2023-05-14T04:34:51;13.57;;;11.40;;
5077;SDS011;2557;51.390;7.494;2023-05-14T04:37:17;13.07;;;11.73;;
5077;SDS011;2557;51.390;7.494;2023-05-14T04:39:43;15.47;;;12.03;;
5077;SDS011;2557;51.390;7.494;2023-05-14T04:42:09;18.73;;;11.73;;
5077;SDS011;2557;51.390;7.494;2023-05-14T04:44:35;15.20;;;12.60;;
5077;SDS011;2557;51.390;7.494;2023-05-14T04:47:01;13.33;;;12.00;;
5077;SDS011;2557;51.390;7.494;2023-05-14T04:49:28;17.63;;;13.70;;
5077;SDS011;2557;51.390;7.494;2023-05-14T04:51:54;14.10;;;12.70;;
5077;SDS011;2557;51.390;7.494;2023-05-14T04:54:20;17.90;;;12.00;;
5077;SDS011;2557;51.390;7.494;2023-05-14T04:56:46;14.67;;;13.20;;
5077;SDS011;2557;51.390;7.494;2023-05-14T04:59:12;13.17;;;11.67;;
5077;SDS011;2557;51.390;7.494;2023-05-14T05:01:38;18.17;;;13.27;;
5077;SDS011;2557;51.390;7.494;2023-05-14T05:04:04;15.43;;;12.00;;
5077;SDS011;2557;51.390;7.494;2023-05-14T05:06:30;18.77;;;13.40;;
5077;SDS011;2557;51.390;7.494;2023-05-14T05:08:56;17.80;;;14.03;;
5077;SDS011;2557;51.390;7.494;2023-05-14T05:11:22;13.83;;;12.40;;
5077;SDS011;2557;51.390;7.494;2023-05-14T05:13:49;14.63;;;13.17;;
5077;SDS011;2557;51.390;7.494;2023-05-14T05:16:15;17.33;;;12.83;;
5077;SDS011;2557;51.390;7.494;2023-05-14T05:18:40;13.30;;;11.90;;
5077;SDS011;2557;51.390;7.494;2023-05-14T05:21:08;13.97;;;12.53;;
5077;SDS011;2557;51.390;7.494;2023-05-14T05:23:34;13.20;;;12.00;;
5077;SDS011;2557;51.390;7.494;2023-05-14T05:26:00;14.97;;;13.37;;
5077;SDS011;2557;51.390;7.494;2023-05-14T05:28:26;15.50;;;13.50;;
5077;SDS011;2557;51.390;7.494;2023-05-14T05:30:52;13.53;;;12.13;;
5077;SDS011;2557;51.390;7.494;2023-05-14T05:33:18;14.50;;;13.00;;
5077;SDS011;2557;51.390;7.494;2023-05-14T05:35:44;13.27;;;11.87;;
5077;SDS011;2557;51.390;7.494;2023-05-14T05:38:10;13.40;;;12.00;;
5077;SDS011;2557;51.390;7.494;2023-05-14T05:40:36;13.57;;;12.20;;
5077;SDS011;2557;51.390;7.494;2023-05-14T05:43:02;14.13;;;11.93;;
5077;SDS011;2557;51.390;7.494;2023-05-14T05:45:28;13.47;;;12.17;;
5077;SDS011;2557;51.390;7.494;2023-05-14T05:47:54;14.20;;;12.77;;
5077;SDS011;2557;51.390;7.494;2023-05-14T05:50:20;14.53;;;11.50;;
5077;SDS011;2557;51.390;7.494;2023-05-14T05:52:46;12.40;;;11.20;;
5077;SDS011;2557;51.390;7.494;2023-05-14T05:55:12;15.27;;;12.63;;
5077;SDS011;2557;51.390;7.494;2023-05-14T05:57:38;14.43;;;12.33;;
5077;SDS011;2557;51.390;7.494;2023-05-14T06:00:04;14.03;;;12.13;;
5077;SDS011;2557;51.390;7.494;2023-05-14T06:02:40;12.20;;;11.00;;
5077;SDS011;2557;51.390;7.494;2023-05-14T06:05:07;13.50;;;11.97;;
5077;SDS011;2557;51.390;7.494;2023-05-14T06:07:33;13.67;;;12.40;;
5077;SDS011;2557;51.390;7.494;2023-05-14T06:09:59;13.17;;;11.70;;
5077;SDS011;2557;51.390;7.494;2023-05-14T06:12:25;13.27;;;11.97;;
5077;SDS011;2557;51.390;7.494;2023-05-14T06:14:52;13.77;;;10.83;;
5077;SDS011;2557;51.390;7.494;2023-05-14T06:17:19;13.37;;;11.97;;
5077;SDS011;2557;51.390;7.494;2023-05-14T06:19:45;15.03;;;12.93;;
5077;SDS011;2557;51.390;7.494;2023-05-14T06:22:11;14.67;;;13.17;;
5077;SDS011;2557;51.390;7.494;2023-05-14T06:24:38;15.70;;;13.10;;
5077;SDS011;2557;51.390;7.494;2023-05-14T06:27:04;12.17;;;10.97;;
5077;SDS011;2557;51.390;7.494;2023-05-14T06:29:30;15.13;;;11.80;;
5077;SDS011;2557;51.390;7.494;2023-05-14T06:32:00;12.50;;;11.20;;
5077;SDS011;2557;51.390;7.494;2023-05-14T06:34:26;12.93;;;11.67;;
5077;SDS011;2557;51.390;7.494;2023-05-14T06:36:52;11.77;;;10.63;;
5077;SDS011;2557;51.390;7.494;2023-05-14T06:39:18;13.57;;;10.90;;
5077;SDS011;2557;51.390;7.494;2023-05-14T06:41:44;12.90;;;11.50;;
5077;SDS011;2557;51.390;7.494;2023-05-14T06:44:10;12.03;;;10.87;;
5077;SDS011;2557;51.390;7.494;2023-05-14T06:46:36;12.30;;;11.17;;
5077;SDS011;2557;51.390;7.494;2023-05-14T06:49:02;11.53;;;10.50;;
5077;SDS011;2557;51.390;7.494;2023-05-14T06:51:28;12.93;;;10.70;;
5077;SDS011;2557;51.390;7.494;2023-05-14T06:53:54;13.03;;;11.70;;
5077;SDS011;2557;51.390;7.494;2023-05-14T06:56:21;12.13;;;10.77;;
5077;SDS011;2557;51.390;7.494;2023-05-14T06:58:47;11.90;;;10.70;;
5077;SDS011;2557;51.390;7.494;2023-05-14T07:01:13;11.30;;;10.40;;
5077;SDS011;2557;51.390;7.494;2023-05-14T07:03:39;11.40;;;10.30;;
5077;SDS011;2557;51.390;7.494;2023-05-14T07:06:05;10.80;;;9.80;;
5077;SDS011;2557;51.390;7.494;2023-05-14T07:08:31;12.77;;;11.00;;
5077;SDS011;2557;51.390;7.494;2023-05-14T07:10:57;10.33;;;9.43;;
5077;SDS011;2557;51.390;7.494;2023-05-14T07:13:23;11.13;;;10.07;;
5077;SDS011;2557;51.390;7.494;2023-05-14T07:15:50;11.13;;;10.17;;
5077;SDS011;2557;51.390;7.494;2023-05-14T07:18:19;13.53;;;9.73;;
5077;SDS011;2557;51.390;7.494;2023-05-14T07:20:45;11.00;;;10.00;;
5077;SDS011;2557;51.390;7.494;2023-05-14T07:23:11;12.40;;;11.17;;
5077;SDS011;2557;51.390;7.494;2023-05-14T07:25:37;11.97;;;10.73;;
5077;SDS011;2557;51.390;7.494;2023-05-14T07:28:03;9.53;;;8.47;;
5077;SDS011;2557;51.390;7.494;2023-05-14T07:30:29;10.60;;;9.20;;
5077;SDS011;2557;51.390;7.494;2023-05-14T07:32:55;10.63;;;9.63;;
5077;SDS011;2557;51.390;7.494;2023-05-14T07:35:21;10.73;;;9.77;;
5077;SDS011;2557;51.390;7.494;2023-05-14T07:37:47;9.87;;;8.90;;
5077;SDS011;2557;51.390;7.494;2023-05-14T07:40:13;10.17;;;9.23;;
5077;SDS011;2557;51.390;7.494;2023-05-14T07:42:40;9.60;;;8.70;;
5077;SDS011;2557;51.390;7.494;2023-05-14T07:45:06;10.70;;;9.03;;
5077;SDS011;2557;51.390;7.494;2023-05-14T07:47:33;10.77;;;8.10;;
5077;SDS011;2557;51.390;7.494;2023-05-14T07:49:59;12.40;;;8.43;;
5077;SDS011;2557;51.390;7.494;2023-05-14T07:52:25;9.37;;;8.30;;
5077;SDS011;2557;51.390;7.494;2023-05-14T07:54:51;8.40;;;7.60;;
5077;SDS011;2557;51.390;7.494;2023-05-14T07:57:17;9.60;;;7.60;;
5077;SDS011;2557;51.390;7.494;2023-05-14T07:59:43;9.27;;;8.30;;
5077;SDS011;2557;51.390;7.494;2023-05-14T08:02:10;9.10;;;8.30;;
5077;SDS011;2557;51.390;7.494;2023-05-14T08:04:37;7.90;;;7.10;;
5077;SDS011;2557;51.390;7.494;2023-05-14T08:07:03;6.87;;;6.40;;
5077;SDS011;2557;51.390;7.494;2023-05-14T08:09:29;6.73;;;6.20;;
5077;SDS011;2557;51.390;7.494;2023-05-14T08:11:55;6.43;;;5.93;;
5077;SDS011;2557;51.390;7.494;2023-05-14T08:14:21;6.40;;;6.00;;
5077;SDS011;2557;51.390;7.494;2023-05-14T08:16:47;6.97;;;6.20;;
5077;SDS011;2557;51.390;7.494;2023-05-14T08:19:14;6.33;;;5.83;;
5077;SDS011;2557;51.390;7.494;2023-05-14T08:21:40;6.13;;;5.73;;
5077;SDS011;2557;51.390;7.494;2023-05-14T08:24:06;5.77;;;5.37;;
5077;SDS011;2557;51.390;7.494;2023-05-14T08:26:32;5.87;;;5.37;;
5077;SDS011;2557;51.390;7.494;2023-05-14T08:28:58;5.80;;;5.30;;
5077;SDS011;2557;51.390;7.494;2023-05-14T08:31:24;6.40;;;5.77;;
5077;SDS011;2557;51.390;7.494;2023-05-14T08:33:50;4.57;;;4.23;;
5077;SDS011;2557;51.390;7.494;2023-05-14T08:36:16;4.70;;;4.40;;
5077;SDS011;2557;51.390;7.494;2023-05-14T08:38:42;4.93;;;4.63;;
5077;SDS011;2557;51.390;7.494;2023-05-14T08:41:09;4.83;;;4.43;;
5077;SDS011;2557;51.390;7.494;2023-05-14T08:46:20;4.43;;;4.07;;
5077;SDS011;2557;51.390;7.494;2023-05-14T08:48:49;4.40;;;4.10;;
5077;SDS011;2557;51.390;7.494;2023-05-14T08:51:16;5.40;;;3.50;;
5077;SDS011;2557;51.390;7.494;2023-05-14T08:53:43;4.53;;;3.70;;
5077;SDS011;2557;51.390;7.494;2023-05-14T08:56:09;4.10;;;3.63;;
5077;SDS011;2557;51.390;7.494;2023-05-14T08:58:36;4.20;;;3.90;;
5077;SDS011;2557;51.390;7.494;2023-05-14T09:01:02;3.33;;;3.10;;
5077;SDS011;2557;51.390;7.494;2023-05-14T09:03:28;3.80;;;3.40;;
5077;SDS011;2557;51.390;7.494;2023-05-14T09:05:55;4.00;;;3.60;;
5077;SDS011;2557;51.390;7.494;2023-05-14T09:08:21;4.30;;;3.47;;
5077;SDS011;2557;51.390;7.494;2023-05-14T09:10:47;4.57;;;3.10;;
5077;SDS011;2557;51.390;7.494;2023-05-14T09:13:13;3.37;;;3.17;;
5077;SDS011;2557;51.390;7.494;2023-05-14T09:15:39;7.10;;;4.00;;
5077;SDS011;2557;51.390;7.494;2023-05-14T09:18:05;4.33;;;3.90;;
5077;SDS011;2557;51.390;7.494;2023-05-14T09:20:32;3.70;;;3.50;;
5077;SDS011;2557;51.390;7.494;2023-05-14T09:22:58;3.80;;;3.50;;
5077;SDS011;2557;51.390;7.494;2023-05-14T09:25:30;4.60;;;3.53;;
5077;SDS011;2557;51.390;7.494;2023-05-14T09:27:56;3.93;;;3.67;;
5077;SDS011;2557;51.390;7.494;2023-05-14T09:30:22;5.73;;;4.10;;
5077;SDS011;2557;51.390;7.494;2023-05-14T09:32:49;3.77;;;3.57;;
5077;SDS011;2557;51.390;7.494;2023-05-14T09:35:23;3.63;;;3.43;;
5077;SDS011;2557;51.390;7.494;2023-05-14T09:37:50;3.50;;;3.30;;
5077;SDS011;2557;51.390;7.494;2023-05-14T09:40:17;3.27;;;3.00;;
5077;SDS011;2557;51.390;7.494;2023-05-14T09:42:43;3.33;;;3.03;;
5077;SDS011;2557;51.390;7.494;2023-05-14T09:45:09;3.70;;;3.50;;
5077;SDS011;2557;51.390;7.494;2023-05-14T09:47:36;3.40;;;3.20;;
5077;SDS011;2557;51.390;7.494;2023-05-14T09:50:02;2.80;;;2.60;;
5077;SDS011;2557;51.390;7.494;2023-05-14T09:52:28;3.60;;;2.90;;
5077;SDS011;2557;51.390;7.494;2023-05-14T09:54:55;3.60;;;3.37;;
5077;SDS011;2557;51.390;7.494;2023-05-14T09:57:21;2.40;;;2.30;;
5077;SDS011;2557;51.390;7.494;2023-05-14T09:59:47;3.03;;;2.73;;
5077;SDS011;2557;51.390;7.494;2023-05-14T10:02:26;2.90;;;2.70;;
5077;SDS011;2557;51.390;7.494;2023-05-14T10:04:53;3.10;;;2.90;;
5077;SDS011;2557;51.390;7.494;2023-05-14T10:07:24;3.70;;;3.50;;
5077;SDS011;2557;51.390;7.494;2023-05-14T10:09:53;2.87;;;2.77;;
5077;SDS011;2557;51.390;7.494;2023-05-14T10:12:21;5.50;;;3.37;;
5077;SDS011;2557;51.390;7.494;2023-05-14T10:14:47;3.00;;;2.80;;
5077;SDS011;2557;51.390;7.494;2023-05-14T10:17:18;3.27;;;3.07;;
5077;SDS011;2557;51.390;7.494;2023-05-14T10:19:46;3.10;;;2.90;;
5077;SDS011;2557;51.390;7.494;2023-05-14T10:22:12;3.00;;;2.83;;
5077;SDS011;2557;51.390;7.494;2023-05-14T10:24:39;2.57;;;2.47;;
5077;SDS011;2557;51.390;7.494;2023-05-14T10:27:06;3.10;;;2.90;;
5077;SDS011;2557;51.390;7.494;2023-05-14T10:29:33;2.97;;;2.77;;
5077;SDS011;2557;51.390;7.494;2023-05-14T10:31:59;3.13;;;2.93;;
5077;SDS011;2557;51.390;7.494;2023-05-14T10:37:01;3.17;;;2.97;;
5077;SDS011;2557;51.390;7.494;2023-05-14T10:42:09;3.30;;;2.90;;
5077;SDS011;2557;51.390;7.494;2023-05-14T10:44:36;3.10;;;2.90;;
5077;SDS011;2557;51.390;7.494;2023-05-14T10:47:05;3.10;;;2.90;;
5077;SDS011;2557;51.390;7.494;2023-05-14T10:49:31;3.00;;;2.80;;
5077;SDS011;2557;51.390;7.494;2023-05-14T10:51:58;3.60;;;3.40;;
5077;SDS011;2557;51.390;7.494;2023-05-14T10:54:26;3.20;;;3.00;;
5077;SDS011;2557;51.390;7.494;2023-05-14T10:56:52;3.30;;;3.00;;
5077;SDS011;2557;51.390;7.494;2023-05-14T10:59:18;3.10;;;2.80;;
5077;SDS011;2557;51.390;7.494;2023-05-14T11:01:44;2.90;;;2.70;;
5077;SDS011;2557;51.390;7.494;2023-05-14T11:04:22;3.17;;;2.97;;
5077;SDS011;2557;51.390;7.494;2023-05-14T11:06:49;3.57;;;3.27;;
5077;SDS011;2557;51.390;7.494;2023-05-14T11:09:16;3.00;;;2.80;;
5077;SDS011;2557;51.390;7.494;2023-05-14T11:11:43;2.93;;;2.73;;
5077;SDS011;2557;51.390;7.494;2023-05-14T11:14:09;2.83;;;2.63;;
5077;SDS011;2557;51.390;7.494;2023-05-14T11:16:35;2.40;;;2.30;;
5077;SDS011;2557;51.390;7.494;2023-05-14T11:19:02;2.43;;;2.33;;
5077;SDS011;2557;51.390;7.494;2023-05-14T11:21:29;4.10;;;2.60;;
5077;SDS011;2557;51.390;7.494;2023-05-14T11:23:58;2.53;;;2.33;;
5077;SDS011;2557;51.390;7.494;2023-05-14T11:26:24;3.97;;;3.00;;
5077;SDS011;2557;51.390;7.494;2023-05-14T11:28:50;2.97;;;2.77;;
5077;SDS011;2557;51.390;7.494;2023-05-14T11:31:16;3.50;;;3.20;;
5077;SDS011;2557;51.390;7.494;2023-05-14T11:33:43;3.60;;;3.30;;
5077;SDS011;2557;51.390;7.494;2023-05-14T11:36:09;3.63;;;3.30;;
5077;SDS011;2557;51.390;7.494;2023-05-14T11:38:44;2.93;;;2.60;;
5077;SDS011;2557;51.390;7.494;2023-05-14T11:41:12;2.67;;;2.47;;
5077;SDS011;2557;51.390;7.494;2023-05-14T11:43:39;4.23;;;3.00;;
5077;SDS011;2557;51.390;7.494;2023-05-14T11:46:05;2.80;;;2.60;;
5077;SDS011;2557;51.390;7.494;2023-05-14T11:48:31;2.20;;;2.10;;
5077;SDS011;2557;51.390;7.494;2023-05-14T11:50:57;3.10;;;2.90;;
5077;SDS011;2557;51.390;7.494;2023-05-14T11:53:24;2.83;;;2.63;;
5077;SDS011;2557;51.390;7.494;2023-05-14T11:55:51;2.63;;;2.43;;
5077;SDS011;2557;51.390;7.494;2023-05-14T11:58:24;2.70;;;2.50;;
5077;SDS011;2557;51.390;7.494;2023-05-14T12:00:50;3.10;;;2.90;;
5077;SDS011;2557;51.390;7.494;2023-05-14T12:03:19;2.83;;;2.33;;
5077;SDS011;2557;51.390;7.494;2023-05-14T12:05:59;3.57;;;3.27;;
5077;SDS011;2557;51.390;7.494;2023-05-14T12:08:26;3.00;;;2.80;;
5077;SDS011;2557;51.390;7.494;2023-05-14T12:10:52;2.50;;;2.40;;
5077;SDS011;2557;51.390;7.494;2023-05-14T12:13:18;2.40;;;2.30;;
5077;SDS011;2557;51.390;7.494;2023-05-14T12:15:45;2.77;;;2.57;;
5077;SDS011;2557;51.390;7.494;2023-05-14T12:18:11;2.83;;;2.63;;
5077;SDS011;2557;51.390;7.494;2023-05-14T12:20:37;2.90;;;2.70;;
5077;SDS011;2557;51.390;7.494;2023-05-14T12:23:03;4.40;;;2.40;;
5077;SDS011;2557;51.390;7.494;2023-05-14T12:25:29;2.50;;;2.30;;
5077;SDS011;2557;51.390;7.494;2023-05-14T12:27:55;3.13;;;2.63;;
5077;SDS011;2557;51.390;7.494;2023-05-14T12:30:21;2.27;;;2.17;;
5077;SDS011;2557;51.390;7.494;2023-05-14T12:32:47;2.33;;;2.10;;
5077;SDS011;2557;51.390;7.494;2023-05-14T12:35:16;2.20;;;2.10;;
5077;SDS011;2557;51.390;7.494;2023-05-14T12:37:42;2.60;;;2.40;;
5077;SDS011;2557;51.390;7.494;2023-05-14T12:40:08;2.30;;;2.20;;
5077;SDS011;2557;51.390;7.494;2023-05-14T12:42:34;2.80;;;2.70;;
5077;SDS011;2557;51.390;7.494;2023-05-14T12:45:00;3.00;;;2.80;;
5077;SDS011;2557;51.390;7.494;2023-05-14T12:47:29;1.90;;;1.80;;
5077;SDS011;2557;51.390;7.494;2023-05-14T12:49:56;2.50;;;2.30;;
5077;SDS011;2557;51.390;7.494;2023-05-14T12:52:22;2.57;;;2.47;;
5077;SDS011;2557;51.390;7.494;2023-05-14T12:54:48;2.23;;;2.13;;
5077;SDS011;2557;51.390;7.494;2023-05-14T12:57:14;2.37;;;2.27;;
5077;SDS011;2557;51.390;7.494;2023-05-14T12:59:40;2.53;;;2.13;;
5077;SDS011;2557;51.390;7.494;2023-05-14T13:02:06;2.33;;;2.23;;
5077;SDS011;2557;51.390;7.494;2023-05-14T13:04:32;2.47;;;2.30;;
5077;SDS011;2557;51.390;7.494;2023-05-14T13:06:58;2.17;;;2.07;;
5077;SDS011;2557;51.390;7.494;2023-05-14T13:09:24;2.57;;;1.87;;
5077;SDS011;2557;51.390;7.494;2023-05-14T13:11:51;2.30;;;2.10;;
5077;SDS011;2557;51.390;7.494;2023-05-14T13:14:17;2.20;;;2.00;;
5077;SDS011;2557;51.390;7.494;2023-05-14T13:16:43;2.00;;;1.90;;
5077;SDS011;2557;51.390;7.494;2023-05-14T13:19:09;2.10;;;2.00;;
5077;SDS011;2557;51.390;7.494;2023-05-14T13:21:35;2.80;;;1.80;;
5077;SDS011;2557;51.390;7.494;2023-05-14T13:24:01;1.90;;;1.80;;
5077;SDS011;2557;51.390;7.494;2023-05-14T13:26:28;2.00;;;1.83;;
5077;SDS011;2557;51.390;7.494;2023-05-14T13:28:54;2.47;;;2.30;;
5077;SDS011;2557;51.390;7.494;2023-05-14T13:31:20;2.00;;;1.90;;
5077;SDS011;2557;51.390;7.494;2023-05-14T13:33:46;1.60;;;1.50;;
5077;SDS011;2557;51.390;7.494;2023-05-14T13:36:12;1.60;;;1.50;;
5077;SDS011;2557;51.390;7.494;2023-05-14T13:38:38;1.67;;;1.50;;
5077;SDS011;2557;51.390;7.494;2023-05-14T13:41:05;1.70;;;1.60;;
5077;SDS011;2557;51.390;7.494;2023-05-14T13:43:32;1.80;;;1.70;;
5077;SDS011;2557;51.390;7.494;2023-05-14T13:45:59;1.87;;;1.77;;
5077;SDS011;2557;51.390;7.494;2023-05-14T13:48:25;1.90;;;1.80;;
5077;SDS011;2557;51.390;7.494;2023-05-14T13:50:51;1.80;;;1.70;;
5077;SDS011;2557;51.390;7.494;2023-05-14T13:53:18;1.97;;;1.83;;
5077;SDS011;2557;51.390;7.494;2023-05-14T13:55:44;1.53;;;1.43;;
5077;SDS011;2557;51.390;7.494;2023-05-14T13:58:10;1.60;;;1.50;;
5077;SDS011;2557;51.390;7.494;2023-05-14T14:00:36;1.70;;;1.60;;
5077;SDS011;2557;51.390;7.494;2023-05-14T14:03:02;1.70;;;1.60;;
5077;SDS011;2557;51.390;7.494;2023-05-14T14:05:28;2.00;;;1.90;;
5077;SDS011;2557;51.390;7.494;2023-05-14T14:07:55;1.67;;;1.57;;
5077;SDS011;2557;51.390;7.494;2023-05-14T14:10:21;1.90;;;1.80;;
5077;SDS011;2557;51.390;7.494;2023-05-14T14:12:47;2.00;;;1.90;;
5077;SDS011;2557;51.390;7.494;2023-05-14T14:15:13;1.80;;;1.70;;
5077;SDS011;2557;51.390;7.494;2023-05-14T14:17:39;1.70;;;1.60;;
5077;SDS011;2557;51.390;7.494;2023-05-14T14:20:06;2.00;;;1.90;;
5077;SDS011;2557;51.390;7.494;2023-05-14T14:22:33;2.47;;;2.27;;
5077;SDS011;2557;51.390;7.494;2023-05-14T14:24:59;2.10;;;2.00;;
5077;SDS011;2557;51.390;7.494;2023-05-14T14:27:25;1.90;;;1.80;;
5077;SDS011;2557;51.390;7.494;2023-05-14T14:29:51;1.77;;;1.67;;
5077;SDS011;2557;51.390;7.494;2023-05-14T14:32:17;2.10;;;1.90;;
5077;SDS011;2557;51.390;7.494;2023-05-14T14:34:44;1.80;;;1.70;;
5077;SDS011;2557;51.390;7.494;2023-05-14T14:37:10;1.73;;;1.63;;
5077;SDS011;2557;51.390;7.494;2023-05-14T14:39:36;2.20;;;1.70;;
5077;SDS011;2557;51.390;7.494;2023-05-14T14:42:02;1.80;;;1.70;;
5077;SDS011;2557;51.390;7.494;2023-05-14T14:44:28;2.53;;;1.57;;
5077;SDS011;2557;51.390;7.494;2023-05-14T14:46:54;1.70;;;1.60;;
5077;SDS011;2557;51.390;7.494;2023-05-14T14:49:20;2.00;;;1.90;;
5077;SDS011;2557;51.390;7.494;2023-05-14T14:51:46;1.90;;;1.70;;
5077;SDS011;2557;51.390;7.494;2023-05-14T14:54:12;2.00;;;1.80;;
5077;SDS011;2557;51.390;7.494;2023-05-14T14:56:38;1.90;;;1.60;;
5077;SDS011;2557;51.390;7.494;2023-05-14T14:59:04;1.90;;;1.80;;
5077;SDS011;2557;51.390;7.494;2023-05-14T15:01:30;1.70;;;1.60;;
5077;SDS011;2557;51.390;7.494;2023-05-14T15:03:56;1.70;;;1.60;;
5077;SDS011;2557;51.390;7.494;2023-05-14T15:06:22;1.60;;;1.50;;
5077;SDS011;2557;51.390;7.494;2023-05-14T15:08:48;2.07;;;1.97;;
5077;SDS011;2557;51.390;7.494;2023-05-14T15:11:14;2.03;;;1.77;;